createdAt,value
2022-11-25T00:00:02.037Z,97.68
2022-11-25T00:05:02.079Z,98.47
2022-11-25T00:10:02.167Z,95.86
2022-11-25T00:15:01.767Z,98.95
2022-11-25T00:20:01.695Z,99.25
2022-11-25T00:25:01.567Z,98.51
2022-11-25T00:30:01.593Z,98.65
2022-11-25T00:35:01.659Z,98.67
2022-11-25T00:40:01.529Z,98.37
2022-11-25T00:45:02.220Z,96.46
2022-11-25T00:50:01.998Z,96.42
2022-11-25T00:55:01.781Z,98.98
2022-11-25T01:00:01.393Z,98.21
2022-11-25T01:05:01.415Z,96.28
2022-11-25T01:10:01.524Z,98.6
2022-11-25T01:15:01.426Z,95.96
2022-11-25T01:20:01.669Z,98.69
2022-11-25T01:25:01.706Z,98.45
2022-11-25T01:30:01.691Z,97.32
2022-11-25T01:35:01.724Z,97.66
2022-11-25T01:40:01.780Z,97.95
2022-11-25T01:45:01.897Z,97.47
2022-11-25T01:50:01.957Z,97.36
2022-11-25T01:55:01.759Z,97.37
2022-11-25T02:00:01.701Z,97.8
2022-11-25T02:05:01.626Z,97.88
2022-11-25T02:10:01.891Z,97.6
2022-11-25T02:15:01.317Z,97.19
2022-11-25T02:20:01.986Z,96.57
2022-11-25T02:25:01.942Z,96.07
2022-11-25T02:30:07.037Z,95.46
2022-11-25T02:35:02.196Z,95.15
2022-11-25T02:40:02.200Z,95.11
2022-11-25T02:45:01.925Z,95.12
2022-11-25T02:50:01.771Z,95.12
2022-11-25T02:55:01.714Z,95.18
2022-11-25T03:00:01.539Z,95.48
2022-11-25T03:05:01.711Z,95.33
2022-11-25T03:10:01.501Z,95.43
2022-11-25T03:15:02.266Z,95.41
2022-11-25T03:20:02.236Z,95.35
2022-11-25T03:25:01.979Z,95.57
2022-11-25T03:30:01.723Z,95.54
2022-11-25T03:35:01.954Z,95.64
2022-11-25T03:40:01.894Z,95.57
2022-11-25T03:45:02.482Z,95.25
2022-11-25T03:50:01.995Z,95.54
2022-11-25T03:55:01.936Z,95.5
2022-11-25T04:00:02.048Z,95.19
2022-11-25T04:05:02.078Z,95.19
2022-11-25T04:10:01.435Z,95.16
2022-11-25T04:15:02.376Z,95.06
2022-11-25T04:20:01.696Z,95.07
2022-11-25T04:25:01.964Z,95.25
2022-11-25T04:30:01.955Z,95.15
2022-11-25T04:35:01.556Z,95.38
2022-11-25T04:40:01.735Z,95.89
2022-11-25T04:45:21.958Z,96.63
2022-11-25T04:50:02.260Z,97.17
2022-11-25T04:55:02.250Z,97.97
2022-11-25T05:00:01.740Z,98.44
2022-11-25T05:05:01.895Z,95.54
2022-11-25T05:10:01.442Z,98.91
2022-11-25T05:15:02.018Z,96.8
2022-11-25T05:20:02.290Z,96.8
2022-11-25T05:25:01.971Z,98.8
2022-11-25T05:30:01.943Z,99.27
2022-11-25T05:35:02.121Z,99.19
2022-11-25T05:40:02.238Z,99.65
2022-11-25T05:45:02.024Z,100.24
2022-11-25T05:50:02.100Z,98.27
2022-11-25T05:55:01.879Z,98.5
2022-11-25T06:00:02.087Z,98.7
2022-11-25T06:05:02.174Z,98.91
2022-11-25T06:10:03.439Z,99.1
2022-11-25T06:15:02.462Z,99.3
2022-11-25T06:20:01.480Z,99.34
2022-11-25T06:25:04.135Z,99.65
2022-11-25T06:30:02.314Z,99.82
2022-11-25T06:35:02.271Z,99.75
2022-11-25T06:40:02.052Z,99.71
2022-11-25T06:45:02.394Z,99.61
2022-11-25T06:50:02.122Z,99.79
2022-11-25T06:55:02.379Z,99.9
2022-11-25T07:00:02.285Z,100.08
2022-11-25T07:05:02.170Z,99.97
2022-11-25T07:10:01.889Z,100.07
2022-11-25T07:15:01.554Z,100.2
2022-11-25T07:20:02.100Z,100.41
2022-11-25T07:25:02.305Z,100.3
2022-11-25T07:31:28.272Z,100.21
2022-11-25T07:35:01.865Z,100.44
2022-11-25T07:40:01.831Z,100.43
2022-11-25T07:45:01.958Z,100.43
2022-11-25T07:50:01.946Z,100.51
2022-11-25T07:55:02.196Z,100.59
2022-11-25T08:00:01.965Z,100.66
2022-11-25T08:05:02.249Z,100.52
2022-11-25T08:10:02.314Z,100.68
2022-11-25T08:15:02.112Z,100.61
2022-11-25T08:20:02.215Z,100.87
2022-11-25T08:25:01.777Z,100.87
2022-11-25T08:30:02.325Z,100.53
2022-11-25T08:35:01.955Z,100.47
2022-11-25T08:40:02.037Z,100.46
2022-11-25T08:45:02.147Z,100.3
2022-11-25T08:50:02.307Z,100.15
2022-11-25T08:55:01.684Z,99.97
2022-11-25T09:00:02.036Z,99.69
2022-11-25T09:05:02.371Z,99.65
2022-11-25T09:10:01.778Z,99.7
2022-11-25T09:15:02.099Z,99.75
2022-11-25T09:20:02.406Z,99.57
2022-11-25T09:25:02.187Z,99.35
2022-11-25T09:30:02.321Z,99.66
2022-11-25T09:35:02.377Z,99.71
2022-11-25T09:40:01.536Z,99.52
2022-11-25T09:45:01.438Z,99.68
2022-11-25T09:50:02.240Z,98.83
2022-11-25T09:55:01.961Z,98.67
2022-11-25T10:00:02.129Z,98.45
2022-11-25T10:05:01.574Z,100.11
2022-11-25T10:10:01.978Z,97.51
2022-11-25T10:15:01.805Z,98.05
2022-11-25T10:20:01.863Z,98.37
2022-11-25T10:25:02.099Z,97.07
2022-11-25T10:30:01.608Z,98.47
2022-11-25T10:35:01.887Z,97.73
2022-11-25T10:40:01.990Z,97.95
2022-11-25T10:45:02.234Z,96.74
2022-11-25T10:50:01.442Z,96.44
2022-11-25T10:55:02.132Z,95.93
2022-11-25T11:00:01.575Z,93.69
2022-11-25T11:05:01.960Z,92.62
2022-11-25T11:10:01.957Z,93.03
2022-11-25T11:15:01.957Z,94.95
2022-11-25T11:20:02.227Z,93.7
2022-11-25T11:25:01.609Z,93.57
2022-11-25T11:30:02.208Z,93.68
2022-11-25T11:35:02.090Z,91.65
2022-11-25T11:40:01.931Z,92.32
2022-11-25T11:45:01.682Z,92.44
2022-11-25T11:50:01.429Z,93.41
2022-11-25T11:55:01.876Z,91.94
2022-11-25T12:00:02.152Z,92.44
2022-11-25T12:05:01.447Z,92.16
2022-11-25T12:10:02.374Z,90.39
2022-11-25T12:15:02.301Z,91.03
2022-11-25T12:20:02.303Z,90.86
2022-11-25T12:25:02.270Z,91.29
2022-11-25T12:30:01.889Z,90.07
2022-11-25T12:35:02.209Z,90.94
2022-11-25T12:40:02.101Z,90.15
2022-11-25T12:45:01.417Z,89.87
2022-11-25T12:50:02.150Z,90.99
2022-11-25T12:55:02.382Z,91.48
2022-11-25T13:00:32.916Z,91.7
2022-11-25T13:10:02.426Z,92.31
2022-11-25T13:10:55.632Z,92.36
2022-11-25T13:15:02.947Z,93.35
2022-11-25T13:20:02.211Z,90.25
2022-11-25T13:25:01.577Z,89.59
2022-11-25T13:30:02.172Z,89.46
2022-11-25T13:35:01.972Z,89.28
2022-11-25T13:40:01.537Z,88.48
2022-11-25T13:45:02.171Z,88.39
2022-11-25T13:50:02.040Z,88.24
2022-11-25T13:55:02.130Z,88.35
2022-11-25T14:00:02.092Z,88.65
2022-11-25T14:05:02.285Z,89.46
2022-11-25T14:10:01.463Z,88.4
2022-11-25T14:15:02.154Z,89.48
2022-11-25T14:20:02.497Z,88.53
2022-11-25T14:25:02.099Z,87.58
2022-11-25T14:30:02.365Z,87.52
2022-11-25T14:35:01.460Z,89.87
2022-11-25T14:40:02.041Z,89.25
2022-11-25T14:45:01.917Z,89.37
2022-11-25T14:50:33.670Z,90.12
2022-11-25T14:55:02.075Z,89.92
2022-11-25T15:00:02.382Z,90.68
2022-11-25T15:05:01.464Z,90.76
2022-11-25T15:10:02.251Z,91.1
2022-11-25T15:15:02.410Z,92.26
2022-11-25T15:20:02.061Z,91.1
2022-11-25T15:25:02.317Z,91.16
2022-11-25T15:30:02.491Z,92.22
2022-11-25T15:35:01.440Z,92.22
2022-11-25T15:40:01.905Z,92.99
2022-11-25T15:45:05.260Z,93.18
2022-11-25T15:50:01.410Z,93.09
2022-11-25T15:55:02.292Z,93.3
2022-11-25T16:00:02.469Z,93.51
2022-11-25T16:05:04.672Z,93.94
2022-11-25T16:10:01.475Z,94.38
2022-11-25T16:15:02.305Z,95.12
2022-11-25T16:20:02.366Z,94.65
2022-11-25T16:25:02.897Z,94.46
2022-11-25T16:30:01.923Z,94.29
2022-11-25T16:35:02.206Z,94.85
2022-11-25T16:40:02.355Z,94.79
2022-11-25T16:45:02.480Z,94.64
2022-11-25T16:50:01.744Z,94.56
2022-11-25T16:55:01.982Z,94.7
2022-11-25T17:00:02.112Z,94.81
2022-11-25T17:05:02.076Z,94.81
2022-11-25T17:10:01.466Z,94.71
2022-11-25T17:15:02.294Z,94.83
2022-11-25T17:20:02.372Z,94.99
2022-11-25T17:25:02.448Z,94.99
2022-11-25T17:30:02.351Z,97.86
2022-11-25T17:35:01.532Z,98.53
2022-11-25T17:40:01.485Z,97.57
2022-11-25T17:45:01.741Z,98.32
2022-11-25T17:50:01.922Z,96.44
2022-11-25T17:55:02.106Z,97.03
2022-11-25T18:00:01.968Z,97.31
2022-11-25T18:05:02.233Z,99.27
2022-11-25T18:10:01.578Z,99.17
2022-11-25T18:15:02.114Z,99.18
2022-11-25T18:20:02.339Z,99.24
2022-11-25T18:25:07.991Z,99.03
2022-11-25T18:30:01.473Z,98.89
2022-11-25T18:35:01.798Z,98.77
2022-11-25T18:40:02.112Z,98.64
2022-11-25T18:45:02.207Z,98.43
2022-11-25T18:50:01.716Z,98.43
2022-11-25T18:55:02.033Z,98.79
2022-11-25T19:00:24.767Z,98.69
2022-11-25T19:05:01.934Z,98.58
2022-11-25T19:10:02.182Z,98.79
2022-11-25T19:15:02.321Z,98.86
2022-11-25T19:20:01.535Z,98.76
2022-11-25T19:25:01.972Z,98.27
2022-11-25T19:30:01.887Z,98.52
2022-11-25T19:35:01.942Z,97.79
2022-11-25T19:40:02.377Z,98.43
2022-11-25T19:45:02.428Z,95.68
2022-11-25T19:50:02.072Z,95.59
2022-11-25T19:55:01.638Z,97.91
2022-11-25T20:00:02.307Z,98.15
2022-11-25T20:05:01.599Z,98.5
2022-11-25T20:10:01.852Z,95.84
2022-11-25T20:15:01.908Z,98.5
2022-11-25T20:20:02.386Z,96.06
2022-11-25T20:25:01.748Z,98.63
2022-11-25T20:30:02.361Z,96.47
2022-11-25T20:35:02.061Z,98.08
2022-11-25T20:40:01.904Z,96.24
2022-11-25T20:45:01.964Z,98.23
2022-11-25T20:50:02.193Z,98.76
2022-11-25T20:55:02.092Z,98.8
2022-11-25T21:00:02.220Z,98.79
2022-11-25T21:05:01.586Z,99.27
2022-11-25T21:10:02.249Z,99.37
2022-11-25T21:15:02.432Z,98.24
2022-11-25T21:20:02.109Z,99.86
2022-11-25T21:25:02.249Z,98.1
2022-11-25T21:30:02.437Z,98.19
2022-11-25T21:35:01.978Z,99.95
2022-11-25T21:40:02.243Z,100.11
2022-11-25T21:45:02.189Z,99.93
2022-11-25T21:50:01.894Z,98.42
2022-11-25T21:55:02.133Z,100.32
2022-11-25T22:00:01.749Z,98.47
2022-11-25T22:05:01.487Z,98.18
2022-11-25T22:10:02.284Z,98.33
2022-11-25T22:15:02.369Z,98.69
2022-11-25T22:20:02.387Z,98.47
2022-11-25T22:25:01.516Z,98.59
2022-11-25T22:30:01.915Z,98.55
2022-11-25T22:35:02.250Z,98.67
2022-11-25T22:40:01.997Z,98.56
2022-11-25T22:45:01.740Z,98.74
2022-11-25T22:50:01.789Z,98.69
2022-11-25T22:55:01.675Z,98.63
2022-11-25T23:00:02.027Z,98.82
2022-11-25T23:05:01.866Z,98.8
2022-11-25T23:10:02.123Z,98.78
2022-11-25T23:15:02.072Z,98.75
2022-11-25T23:20:02.193Z,98.84
2022-11-25T23:25:02.174Z,98.83
2022-11-25T23:30:02.339Z,98.75
2022-11-25T23:35:02.089Z,98.83
2022-11-25T23:40:02.024Z,98.73
2022-11-25T23:45:01.539Z,98.88
2022-11-25T23:50:01.562Z,98.76
2022-11-25T23:55:01.907Z,98.72
